Metar z połowy godziny Komunikat METAR ze strony awiacja.imgw.pl Metar G30 EPMM METAR EPMM 221430Z 27014KT CAVOK 19/03 Q1015 RMK 190 034 6/4=